NCAR-RAP Real-Time Weather Data

Output produced by METARs form (21 May 2019  10:26 UTC)
found at http://weather.rap.ucar.edu/surface/
 
RJAA 211010Z 20008KT 160V240 7000 -SHRA FEW003 SCT015 BKN030 20/19 Q1001 RMK 1ST003 4CU015 7CU030 A2956
 
RJAF 210700Z 35014KT 9999 FEW020 BKN/// 18/12 Q1003
 
RJAH 211000Z 35010KT 2000 -SHRA BR SCT003 OVC005 16/16 Q1001
 
RJGG 211000Z 32021KT 9999 FEW020 20/10 Q1001 NOSIG
 
RJNK 211000Z 19005KT 170V230 9999 FEW040 BKN230 18/10 Q1006
 
RJNT 211000Z 29006KT 260V320 9999 FEW100 BKN/// 18/08 Q1005
 
RJNW 211000Z 26007KT 9999 FEW030 SCT/// 14/10 Q1006
 
RJTF 210800Z 35004KT 310V030 9999 FEW015 BKN030 BKN060 20/19 Q1000
 
 
RJTO 210800Z 20013KT 9999 FEW007 SCT015 BKN030 19/18 Q1000
 
RJTT 211008Z 27004KT 230V320 6000 -SHRA FEW005 BKN010 BKN014 21/20 Q1001 RMK 1ST005 5ST010 7CU014 A2956